sensor_id;sensor_type;location;lat;lon;timestamp;P1;durP1;ratioP1;P2;durP2;ratioP2
38465;SDS011;24244;51.950;5.902;2023-07-13T00:01:55;3.65;;;0.90;;
38465;SDS011;24244;51.950;5.902;2023-07-13T00:04:23;2.67;;;0.70;;
38465;SDS011;24244;51.950;5.902;2023-07-13T00:06:52;3.08;;;0.80;;
38465;SDS011;24244;51.950;5.902;2023-07-13T00:09:19;1.98;;;0.47;;
38465;SDS011;24244;51.950;5.902;2023-07-13T00:11:49;3.10;;;0.70;;
38465;SDS011;24244;51.950;5.902;2023-07-13T00:14:17;4.45;;;0.80;;
38465;SDS011;24244;51.950;5.902;2023-07-13T00:16:44;3.42;;;1.23;;
38465;SDS011;24244;51.950;5.902;2023-07-13T00:19:12;3.97;;;0.98;;
38465;SDS011;24244;51.950;5.902;2023-07-13T00:21:39;3.08;;;1.00;;
38465;SDS011;24244;51.950;5.902;2023-07-13T00:24:07;2.15;;;0.73;;
38465;SDS011;24244;51.950;5.902;2023-07-13T00:26:34;3.38;;;0.95;;
38465;SDS011;24244;51.950;5.902;2023-07-13T00:29:01;3.88;;;0.80;;
38465;SDS011;24244;51.950;5.902;2023-07-13T00:31:27;2.75;;;0.60;;
38465;SDS011;24244;51.950;5.902;2023-07-13T00:33:54;2.67;;;1.10;;
38465;SDS011;24244;51.950;5.902;2023-07-13T00:36:23;3.08;;;0.90;;
38465;SDS011;24244;51.950;5.902;2023-07-13T00:38:49;4.97;;;1.20;;
38465;SDS011;24244;51.950;5.902;2023-07-13T00:41:16;2.47;;;0.60;;
38465;SDS011;24244;51.950;5.902;2023-07-13T00:43:43;1.65;;;0.70;;
38465;SDS011;24244;51.950;5.902;2023-07-13T00:46:12;1.90;;;0.50;;
38465;SDS011;24244;51.950;5.902;2023-07-13T00:49:12;3.08;;;1.05;;
38465;SDS011;24244;51.950;5.902;2023-07-13T00:51:43;2.03;;;0.80;;
38465;SDS011;24244;51.950;5.902;2023-07-13T00:54:16;5.65;;;1.10;;
38465;SDS011;24244;51.950;5.902;2023-07-13T00:56:47;2.50;;;0.80;;
38465;SDS011;24244;51.950;5.902;2023-07-13T00:59:16;3.70;;;0.98;;
38465;SDS011;24244;51.950;5.902;2023-07-13T01:01:45;2.70;;;1.02;;
38465;SDS011;24244;51.950;5.902;2023-07-13T01:04:12;1.85;;;0.60;;
38465;SDS011;24244;51.950;5.902;2023-07-13T01:06:42;2.50;;;0.90;;
38465;SDS011;24244;51.950;5.902;2023-07-13T01:09:10;1.30;;;0.57;;
38465;SDS011;24244;51.950;5.902;2023-07-13T01:11:38;1.88;;;0.70;;
38465;SDS011;24244;51.950;5.902;2023-07-13T01:14:07;2.08;;;0.50;;
38465;SDS011;24244;51.950;5.902;2023-07-13T01:16:35;1.60;;;0.70;;
38465;SDS011;24244;51.950;5.902;2023-07-13T01:19:05;1.48;;;0.50;;
38465;SDS011;24244;51.950;5.902;2023-07-13T01:21:41;4.32;;;0.90;;
38465;SDS011;24244;51.950;5.902;2023-07-13T01:24:09;1.80;;;0.50;;
38465;SDS011;24244;51.950;5.902;2023-07-13T01:26:36;4.68;;;0.90;;
38465;SDS011;24244;51.950;5.902;2023-07-13T01:29:02;3.03;;;0.88;;
38465;SDS011;24244;51.950;5.902;2023-07-13T01:31:29;3.08;;;0.60;;
38465;SDS011;24244;51.950;5.902;2023-07-13T01:33:56;2.10;;;0.60;;
38465;SDS011;24244;51.950;5.902;2023-07-13T01:36:24;1.40;;;0.50;;
38465;SDS011;24244;51.950;5.902;2023-07-13T01:38:52;3.47;;;0.70;;
38465;SDS011;24244;51.950;5.902;2023-07-13T01:41:19;3.78;;;0.80;;
38465;SDS011;24244;51.950;5.902;2023-07-13T01:43:46;2.10;;;0.90;;
38465;SDS011;24244;51.950;5.902;2023-07-13T01:46:13;2.13;;;0.55;;
38465;SDS011;24244;51.950;5.902;2023-07-13T01:48:43;2.72;;;0.90;;
38465;SDS011;24244;51.950;5.902;2023-07-13T01:51:10;3.08;;;0.80;;
38465;SDS011;24244;51.950;5.902;2023-07-13T01:53:37;2.10;;;0.63;;
38465;SDS011;24244;51.950;5.902;2023-07-13T01:56:05;2.97;;;0.80;;
38465;SDS011;24244;51.950;5.902;2023-07-13T01:58:32;3.85;;;1.30;;
38465;SDS011;24244;51.950;5.902;2023-07-13T02:00:59;3.00;;;1.00;;
38465;SDS011;24244;51.950;5.902;2023-07-13T02:03:25;2.75;;;1.00;;
38465;SDS011;24244;51.950;5.902;2023-07-13T02:05:52;2.85;;;1.10;;
38465;SDS011;24244;51.950;5.902;2023-07-13T02:08:19;2.90;;;0.93;;
38465;SDS011;24244;51.950;5.902;2023-07-13T02:10:46;2.63;;;1.20;;
38465;SDS011;24244;51.950;5.902;2023-07-13T02:13:14;3.35;;;1.00;;
38465;SDS011;24244;51.950;5.902;2023-07-13T02:15:41;3.30;;;0.82;;
38465;SDS011;24244;51.950;5.902;2023-07-13T02:18:07;3.00;;;1.20;;
38465;SDS011;24244;51.950;5.902;2023-07-13T02:20:34;3.60;;;1.15;;
38465;SDS011;24244;51.950;5.902;2023-07-13T02:23:01;2.72;;;1.00;;
38465;SDS011;24244;51.950;5.902;2023-07-13T02:25:28;3.45;;;1.00;;
38465;SDS011;24244;51.950;5.902;2023-07-13T02:27:55;3.05;;;0.70;;
38465;SDS011;24244;51.950;5.902;2023-07-13T02:30:23;3.03;;;1.05;;
38465;SDS011;24244;51.950;5.902;2023-07-13T02:32:51;4.15;;;1.20;;
38465;SDS011;24244;51.950;5.902;2023-07-13T02:35:18;3.42;;;1.10;;
38465;SDS011;24244;51.950;5.902;2023-07-13T02:37:44;6.35;;;1.48;;
38465;SDS011;24244;51.950;5.902;2023-07-13T02:40:11;3.58;;;1.02;;
38465;SDS011;24244;51.950;5.902;2023-07-13T02:42:39;2.58;;;1.40;;
38465;SDS011;24244;51.950;5.902;2023-07-13T02:45:07;4.05;;;1.25;;
38465;SDS011;24244;51.950;5.902;2023-07-13T02:47:37;3.67;;;1.38;;
38465;SDS011;24244;51.950;5.902;2023-07-13T02:50:05;3.47;;;0.90;;
38465;SDS011;24244;51.950;5.902;2023-07-13T02:52:32;2.55;;;1.13;;
38465;SDS011;24244;51.950;5.902;2023-07-13T02:54:59;3.60;;;1.30;;
38465;SDS011;24244;51.950;5.902;2023-07-13T02:57:26;4.50;;;1.17;;
38465;SDS011;24244;51.950;5.902;2023-07-13T02:59:54;5.18;;;1.27;;
38465;SDS011;24244;51.950;5.902;2023-07-13T03:02:21;2.70;;;1.00;;
38465;SDS011;24244;51.950;5.902;2023-07-13T03:04:49;5.47;;;1.52;;
38465;SDS011;24244;51.950;5.902;2023-07-13T03:07:16;3.65;;;1.00;;
38465;SDS011;24244;51.950;5.902;2023-07-13T03:09:42;5.03;;;1.65;;
38465;SDS011;24244;51.950;5.902;2023-07-13T03:12:09;4.47;;;1.30;;
38465;SDS011;24244;51.950;5.902;2023-07-13T03:14:36;3.63;;;1.10;;
38465;SDS011;24244;51.950;5.902;2023-07-13T03:17:03;3.17;;;1.00;;
38465;SDS011;24244;51.950;5.902;2023-07-13T03:19:30;2.90;;;1.10;;
38465;SDS011;24244;51.950;5.902;2023-07-13T03:21:58;5.35;;;1.27;;
38465;SDS011;24244;51.950;5.902;2023-07-13T03:24:25;4.40;;;1.42;;
38465;SDS011;24244;51.950;5.902;2023-07-13T03:26:52;4.35;;;1.10;;
38465;SDS011;24244;51.950;5.902;2023-07-13T03:29:19;4.70;;;1.38;;
38465;SDS011;24244;51.950;5.902;2023-07-13T03:31:46;2.28;;;1.30;;
38465;SDS011;24244;51.950;5.902;2023-07-13T03:34:12;3.85;;;1.40;;
38465;SDS011;24244;51.950;5.902;2023-07-13T03:36:39;3.80;;;1.30;;
38465;SDS011;24244;51.950;5.902;2023-07-13T03:39:08;2.97;;;1.25;;
38465;SDS011;24244;51.950;5.902;2023-07-13T03:41:35;3.47;;;1.10;;
38465;SDS011;24244;51.950;5.902;2023-07-13T03:44:02;3.20;;;1.25;;
38465;SDS011;24244;51.950;5.902;2023-07-13T03:46:29;2.65;;;1.30;;
38465;SDS011;24244;51.950;5.902;2023-07-13T03:48:57;4.85;;;1.45;;
38465;SDS011;24244;51.950;5.902;2023-07-13T03:51:24;3.47;;;1.13;;
38465;SDS011;24244;51.950;5.902;2023-07-13T03:53:51;4.78;;;1.17;;
38465;SDS011;24244;51.950;5.902;2023-07-13T03:56:19;4.78;;;1.48;;
38465;SDS011;24244;51.950;5.902;2023-07-13T03:58:46;2.50;;;1.02;;
38465;SDS011;24244;51.950;5.902;2023-07-13T04:01:14;6.30;;;1.60;;
38465;SDS011;24244;51.950;5.902;2023-07-13T04:03:42;5.28;;;1.33;;
38465;SDS011;24244;51.950;5.902;2023-07-13T04:06:13;5.45;;;1.70;;
38465;SDS011;24244;51.950;5.902;2023-07-13T04:08:42;2.72;;;1.27;;
38465;SDS011;24244;51.950;5.902;2023-07-13T04:11:08;4.18;;;1.30;;
38465;SDS011;24244;51.950;5.902;2023-07-13T04:13:37;4.95;;;1.70;;
38465;SDS011;24244;51.950;5.902;2023-07-13T04:16:03;4.20;;;1.50;;
38465;SDS011;24244;51.950;5.902;2023-07-13T04:18:30;4.30;;;1.92;;
38465;SDS011;24244;51.950;5.902;2023-07-13T04:20:57;6.88;;;1.98;;
38465;SDS011;24244;51.950;5.902;2023-07-13T04:23:24;4.40;;;1.58;;
38465;SDS011;24244;51.950;5.902;2023-07-13T04:25:51;6.35;;;1.70;;
38465;SDS011;24244;51.950;5.902;2023-07-13T04:28:19;4.28;;;1.30;;
38465;SDS011;24244;51.950;5.902;2023-07-13T04:30:49;3.33;;;1.45;;
38465;SDS011;24244;51.950;5.902;2023-07-13T04:33:16;3.00;;;1.60;;
38465;SDS011;24244;51.950;5.902;2023-07-13T04:35:45;3.25;;;1.40;;
38465;SDS011;24244;51.950;5.902;2023-07-13T04:38:15;5.47;;;1.65;;
38465;SDS011;24244;51.950;5.902;2023-07-13T04:40:42;5.63;;;1.42;;
38465;SDS011;24244;51.950;5.902;2023-07-13T04:43:09;5.75;;;1.65;;
38465;SDS011;24244;51.950;5.902;2023-07-13T04:45:36;3.42;;;1.42;;
38465;SDS011;24244;51.950;5.902;2023-07-13T04:48:05;3.95;;;1.67;;
38465;SDS011;24244;51.950;5.902;2023-07-13T04:50:32;3.65;;;1.50;;
38465;SDS011;24244;51.950;5.902;2023-07-13T04:52:59;4.70;;;1.80;;
38465;SDS011;24244;51.950;5.902;2023-07-13T04:55:25;7.55;;;1.95;;
38465;SDS011;24244;51.950;5.902;2023-07-13T04:57:56;7.38;;;1.65;;
38465;SDS011;24244;51.950;5.902;2023-07-13T05:00:24;4.25;;;1.75;;
38465;SDS011;24244;51.950;5.902;2023-07-13T05:02:51;6.55;;;1.80;;
38465;SDS011;24244;51.950;5.902;2023-07-13T05:05:20;4.75;;;2.28;;
38465;SDS011;24244;51.950;5.902;2023-07-13T05:07:49;5.78;;;1.80;;
38465;SDS011;24244;51.950;5.902;2023-07-13T05:10:16;6.85;;;1.77;;
38465;SDS011;24244;51.950;5.902;2023-07-13T05:12:43;4.90;;;1.58;;
38465;SDS011;24244;51.950;5.902;2023-07-13T05:15:09;3.72;;;1.60;;
38465;SDS011;24244;51.950;5.902;2023-07-13T05:17:38;3.47;;;1.73;;
38465;SDS011;24244;51.950;5.902;2023-07-13T05:20:08;5.05;;;2.00;;
38465;SDS011;24244;51.950;5.902;2023-07-13T05:22:37;6.07;;;2.20;;
38465;SDS011;24244;51.950;5.902;2023-07-13T05:25:04;6.57;;;2.83;;
38465;SDS011;24244;51.950;5.902;2023-07-13T05:27:33;4.28;;;2.10;;
38465;SDS011;24244;51.950;5.902;2023-07-13T05:30:00;5.10;;;1.80;;
38465;SDS011;24244;51.950;5.902;2023-07-13T05:32:27;5.72;;;1.98;;
38465;SDS011;24244;51.950;5.902;2023-07-13T05:34:55;4.75;;;1.95;;
38465;SDS011;24244;51.950;5.902;2023-07-13T05:37:22;5.97;;;2.55;;
38465;SDS011;24244;51.950;5.902;2023-07-13T05:39:50;5.03;;;2.08;;
38465;SDS011;24244;51.950;5.902;2023-07-13T05:42:17;7.22;;;3.20;;
38465;SDS011;24244;51.950;5.902;2023-07-13T05:44:44;3.80;;;1.80;;
38465;SDS011;24244;51.950;5.902;2023-07-13T05:47:11;4.60;;;2.40;;
38465;SDS011;24244;51.950;5.902;2023-07-13T05:49:40;5.00;;;2.03;;
38465;SDS011;24244;51.950;5.902;2023-07-13T05:52:07;7.68;;;3.20;;
38465;SDS011;24244;51.950;5.902;2023-07-13T05:54:34;9.88;;;3.00;;
38465;SDS011;24244;51.950;5.902;2023-07-13T05:57:03;8.50;;;3.35;;
38465;SDS011;24244;51.950;5.902;2023-07-13T05:59:30;5.60;;;2.55;;
38465;SDS011;24244;51.950;5.902;2023-07-13T06:01:57;7.45;;;2.63;;
38465;SDS011;24244;51.950;5.902;2023-07-13T06:04:25;9.30;;;3.05;;
38465;SDS011;24244;51.950;5.902;2023-07-13T06:06:52;8.27;;;3.25;;
38465;SDS011;24244;51.950;5.902;2023-07-13T06:09:19;8.40;;;3.50;;
38465;SDS011;24244;51.950;5.902;2023-07-13T06:11:46;5.75;;;3.30;;
38465;SDS011;24244;51.950;5.902;2023-07-13T06:14:14;7.80;;;3.17;;
38465;SDS011;24244;51.950;5.902;2023-07-13T06:16:41;7.50;;;4.05;;
38465;SDS011;24244;51.950;5.902;2023-07-13T06:19:08;8.73;;;4.38;;
38465;SDS011;24244;51.950;5.902;2023-07-13T06:21:34;9.05;;;3.50;;
38465;SDS011;24244;51.950;5.902;2023-07-13T06:24:01;8.50;;;3.92;;
38465;SDS011;24244;51.950;5.902;2023-07-13T06:26:28;7.85;;;3.47;;
38465;SDS011;24244;51.950;5.902;2023-07-13T06:28:55;8.40;;;3.80;;
38465;SDS011;24244;51.950;5.902;2023-07-13T06:31:24;10.35;;;3.28;;
38465;SDS011;24244;51.950;5.902;2023-07-13T06:33:50;12.00;;;4.80;;
38465;SDS011;24244;51.950;5.902;2023-07-13T06:36:17;9.43;;;3.78;;
38465;SDS011;24244;51.950;5.902;2023-07-13T06:38:44;5.63;;;2.83;;
38465;SDS011;24244;51.950;5.902;2023-07-13T06:41:13;9.57;;;3.88;;
38465;SDS011;24244;51.950;5.902;2023-07-13T06:43:40;8.10;;;3.33;;
38465;SDS011;24244;51.950;5.902;2023-07-13T06:46:07;8.50;;;4.22;;
38465;SDS011;24244;51.950;5.902;2023-07-13T06:48:35;10.43;;;3.53;;
38465;SDS011;24244;51.950;5.902;2023-07-13T06:51:02;10.65;;;5.05;;
38465;SDS011;24244;51.950;5.902;2023-07-13T06:53:30;7.68;;;3.72;;
38465;SDS011;24244;51.950;5.902;2023-07-13T06:55:56;10.57;;;4.78;;
38465;SDS011;24244;51.950;5.902;2023-07-13T06:58:23;8.60;;;3.83;;
38465;SDS011;24244;51.950;5.902;2023-07-13T07:00:50;7.95;;;4.38;;
38465;SDS011;24244;51.950;5.902;2023-07-13T07:03:18;11.20;;;4.68;;
38465;SDS011;24244;51.950;5.902;2023-07-13T07:05:47;11.48;;;4.78;;
38465;SDS011;24244;51.950;5.902;2023-07-13T07:08:13;11.43;;;4.93;;
38465;SDS011;24244;51.950;5.902;2023-07-13T07:10:41;9.23;;;4.78;;
38465;SDS011;24244;51.950;5.902;2023-07-13T07:13:09;7.32;;;4.07;;
38465;SDS011;24244;51.950;5.902;2023-07-13T07:15:36;9.20;;;4.43;;
38465;SDS011;24244;51.950;5.902;2023-07-13T07:18:02;7.97;;;3.78;;
38465;SDS011;24244;51.950;5.902;2023-07-13T07:20:30;6.97;;;4.07;;
38465;SDS011;24244;51.950;5.902;2023-07-13T07:23:00;11.32;;;5.57;;
38465;SDS011;24244;51.950;5.902;2023-07-13T07:25:27;10.18;;;4.22;;
38465;SDS011;24244;51.950;5.902;2023-07-13T07:27:58;9.35;;;4.55;;
38465;SDS011;24244;51.950;5.902;2023-07-13T07:30:28;8.85;;;4.78;;
38465;SDS011;24244;51.950;5.902;2023-07-13T07:32:58;6.30;;;3.90;;
38465;SDS011;24244;51.950;5.902;2023-07-13T07:35:27;11.75;;;5.05;;
38465;SDS011;24244;51.950;5.902;2023-07-13T07:37:58;10.32;;;5.07;;
38465;SDS011;24244;51.950;5.902;2023-07-13T07:40:26;8.65;;;4.68;;
38465;SDS011;24244;51.950;5.902;2023-07-13T07:42:57;8.05;;;4.57;;
38465;SDS011;24244;51.950;5.902;2023-07-13T07:45:26;9.88;;;5.40;;
38465;SDS011;24244;51.950;5.902;2023-07-13T07:47:53;8.98;;;5.32;;
38465;SDS011;24244;51.950;5.902;2023-07-13T07:50:21;9.85;;;5.60;;
38465;SDS011;24244;51.950;5.902;2023-07-13T07:52:48;8.43;;;3.97;;
38465;SDS011;24244;51.950;5.902;2023-07-13T07:55:14;7.10;;;3.72;;
38465;SDS011;24244;51.950;5.902;2023-07-13T07:57:45;8.02;;;4.88;;
38465;SDS011;24244;51.950;5.902;2023-07-13T08:00:18;10.57;;;4.47;;
38465;SDS011;24244;51.950;5.902;2023-07-13T08:02:50;11.02;;;4.68;;
38465;SDS011;24244;51.950;5.902;2023-07-13T08:05:20;8.88;;;4.95;;
38465;SDS011;24244;51.950;5.902;2023-07-13T08:08:02;8.93;;;5.30;;
38465;SDS011;24244;51.950;5.902;2023-07-13T08:10:29;6.60;;;4.00;;
38465;SDS011;24244;51.950;5.902;2023-07-13T08:12:57;12.35;;;5.38;;
38465;SDS011;24244;51.950;5.902;2023-07-13T08:15:28;14.48;;;6.63;;
38465;SDS011;24244;51.950;5.902;2023-07-13T08:17:55;13.80;;;7.80;;
38465;SDS011;24244;51.950;5.902;2023-07-13T08:20:22;8.73;;;5.07;;
38465;SDS011;24244;51.950;5.902;2023-07-13T08:22:49;9.00;;;5.00;;
38465;SDS011;24244;51.950;5.902;2023-07-13T08:25:16;10.02;;;5.68;;
38465;SDS011;24244;51.950;5.902;2023-07-13T08:27:43;9.27;;;5.75;;
38465;SDS011;24244;51.950;5.902;2023-07-13T08:30:12;8.63;;;4.90;;
38465;SDS011;24244;51.950;5.902;2023-07-13T08:32:38;8.52;;;4.40;;
38465;SDS011;24244;51.950;5.902;2023-07-13T08:35:05;8.10;;;5.25;;
38465;SDS011;24244;51.950;5.902;2023-07-13T08:37:33;8.63;;;4.82;;
38465;SDS011;24244;51.950;5.902;2023-07-13T08:40:00;14.60;;;6.13;;
38465;SDS011;24244;51.950;5.902;2023-07-13T08:42:29;8.85;;;5.15;;
38465;SDS011;24244;51.950;5.902;2023-07-13T08:45:05;9.23;;;4.53;;
38465;SDS011;24244;51.950;5.902;2023-07-13T08:47:47;6.25;;;3.72;;
38465;SDS011;24244;51.950;5.902;2023-07-13T08:50:20;7.63;;;4.60;;
38465;SDS011;24244;51.950;5.902;2023-07-13T08:52:52;8.32;;;5.10;;
38465;SDS011;24244;51.950;5.902;2023-07-13T08:55:24;7.95;;;4.20;;
38465;SDS011;24244;51.950;5.902;2023-07-13T08:57:56;9.40;;;4.53;;
38465;SDS011;24244;51.950;5.902;2023-07-13T09:00:32;7.63;;;4.75;;
38465;SDS011;24244;51.950;5.902;2023-07-13T09:03:05;8.15;;;4.55;;
38465;SDS011;24244;51.950;5.902;2023-07-13T09:05:44;10.93;;;4.70;;
38465;SDS011;24244;51.950;5.902;2023-07-13T09:08:24;8.18;;;3.60;;
38465;SDS011;24244;51.950;5.902;2023-07-13T09:11:04;7.25;;;4.53;;
38465;SDS011;24244;51.950;5.902;2023-07-13T09:13:43;7.85;;;4.28;;
38465;SDS011;24244;51.950;5.902;2023-07-13T09:16:15;7.45;;;4.50;;
38465;SDS011;24244;51.950;5.902;2023-07-13T09:18:45;6.95;;;4.70;;
38465;SDS011;24244;51.950;5.902;2023-07-13T09:21:15;9.90;;;4.97;;
38465;SDS011;24244;51.950;5.902;2023-07-13T09:23:47;7.18;;;3.95;;
38465;SDS011;24244;51.950;5.902;2023-07-13T09:26:17;5.22;;;3.28;;
38465;SDS011;24244;51.950;5.902;2023-07-13T09:28:47;9.30;;;4.20;;
38465;SDS011;24244;51.950;5.902;2023-07-13T09:31:17;6.22;;;3.92;;
38465;SDS011;24244;51.950;5.902;2023-07-13T09:33:51;7.47;;;3.85;;
38465;SDS011;24244;51.950;5.902;2023-07-13T09:36:19;6.60;;;4.03;;
38465;SDS011;24244;51.950;5.902;2023-07-13T09:38:53;8.18;;;4.25;;
38465;SDS011;24244;51.950;5.902;2023-07-13T09:41:26;6.57;;;4.47;;
38465;SDS011;24244;51.950;5.902;2023-07-13T09:46:53;5.20;;;3.63;;
38465;SDS011;24244;51.950;5.902;2023-07-13T09:49:24;7.75;;;3.95;;
38465;SDS011;24244;51.950;5.902;2023-07-13T09:51:57;6.30;;;3.40;;
38465;SDS011;24244;51.950;5.902;2023-07-13T09:54:26;7.47;;;3.80;;
38465;SDS011;24244;51.950;5.902;2023-07-13T09:56:54;6.07;;;2.80;;
38465;SDS011;24244;51.950;5.902;2023-07-13T09:59:23;7.40;;;4.18;;
38465;SDS011;24244;51.950;5.902;2023-07-13T10:01:53;6.75;;;3.60;;
38465;SDS011;24244;51.950;5.902;2023-07-13T10:04:22;5.40;;;3.42;;
38465;SDS011;24244;51.950;5.902;2023-07-13T10:07:06;5.75;;;3.45;;
38465;SDS011;24244;51.950;5.902;2023-07-13T10:09:54;7.20;;;3.80;;
38465;SDS011;24244;51.950;5.902;2023-07-13T10:12:21;7.07;;;3.50;;
38465;SDS011;24244;51.950;5.902;2023-07-13T10:14:52;5.40;;;3.05;;
38465;SDS011;24244;51.950;5.902;2023-07-13T10:17:37;5.70;;;3.40;;
38465;SDS011;24244;51.950;5.902;2023-07-13T10:20:08;6.88;;;4.10;;
38465;SDS011;24244;51.950;5.902;2023-07-13T10:22:42;11.02;;;4.22;;
38465;SDS011;24244;51.950;5.902;2023-07-13T10:25:18;4.90;;;3.25;;
38465;SDS011;24244;51.950;5.902;2023-07-13T10:27:47;5.15;;;3.42;;
38465;SDS011;24244;51.950;5.902;2023-07-13T10:30:19;6.00;;;4.13;;
38465;SDS011;24244;51.950;5.902;2023-07-13T10:32:51;5.88;;;3.20;;
38465;SDS011;24244;51.950;5.902;2023-07-13T10:35:21;7.43;;;3.25;;
38465;SDS011;24244;51.950;5.902;2023-07-13T10:37:52;6.07;;;2.53;;
38465;SDS011;24244;51.950;5.902;2023-07-13T10:40:23;6.72;;;3.35;;
38465;SDS011;24244;51.950;5.902;2023-07-13T10:43:02;5.32;;;3.05;;
38465;SDS011;24244;51.950;5.902;2023-07-13T10:45:39;6.72;;;3.42;;
38465;SDS011;24244;51.950;5.902;2023-07-13T10:48:08;6.70;;;3.10;;
38465;SDS011;24244;51.950;5.902;2023-07-13T10:50:44;4.25;;;2.97;;
38465;SDS011;24244;51.950;5.902;2023-07-13T10:53:17;5.40;;;2.50;;
38465;SDS011;24244;51.950;5.902;2023-07-13T10:55:54;6.63;;;2.78;;
38465;SDS011;24244;51.950;5.902;2023-07-13T10:58:31;4.47;;;2.70;;
38465;SDS011;24244;51.950;5.902;2023-07-13T11:01:03;3.25;;;1.83;;
38465;SDS011;24244;51.950;5.902;2023-07-13T11:03:36;3.22;;;1.88;;
38465;SDS011;24244;51.950;5.902;2023-07-13T11:06:07;2.78;;;1.70;;
38465;SDS011;24244;51.950;5.902;2023-07-13T11:08:36;2.38;;;1.35;;
38465;SDS011;24244;51.950;5.902;2023-07-13T11:14:03;4.47;;;2.03;;
38465;SDS011;24244;51.950;5.902;2023-07-13T11:16:42;5.13;;;2.00;;
38465;SDS011;24244;51.950;5.902;2023-07-13T11:25:24;5.10;;;2.47;;
38465;SDS011;24244;51.950;5.902;2023-07-13T11:28:15;3.53;;;2.20;;
38465;SDS011;24244;51.950;5.902;2023-07-13T11:30:46;5.25;;;2.40;;
38465;SDS011;24244;51.950;5.902;2023-07-13T11:33:16;4.57;;;2.42;;
38465;SDS011;24244;51.950;5.902;2023-07-13T11:35:48;4.38;;;1.90;;
38465;SDS011;24244;51.950;5.902;2023-07-13T11:38:20;3.45;;;2.20;;
38465;SDS011;24244;51.950;5.902;2023-07-13T11:40:50;4.20;;;2.13;;
38465;SDS011;24244;51.950;5.902;2023-07-13T11:43:22;5.05;;;2.10;;
38465;SDS011;24244;51.950;5.902;2023-07-13T11:45:52;3.13;;;1.70;;
38465;SDS011;24244;51.950;5.902;2023-07-13T11:48:20;3.83;;;1.77;;
38465;SDS011;24244;51.950;5.902;2023-07-13T11:50:49;4.35;;;2.13;;
38465;SDS011;24244;51.950;5.902;2023-07-13T11:53:25;5.60;;;2.38;;
38465;SDS011;24244;51.950;5.902;2023-07-13T11:55:54;3.78;;;1.63;;
38465;SDS011;24244;51.950;5.902;2023-07-13T11:58:24;3.35;;;1.80;;
38465;SDS011;24244;51.950;5.902;2023-07-13T12:00:52;3.55;;;1.80;;
38465;SDS011;24244;51.950;5.902;2023-07-13T12:03:21;3.60;;;1.58;;
38465;SDS011;24244;51.950;5.902;2023-07-13T12:05:58;4.93;;;1.60;;
38465;SDS011;24244;51.950;5.902;2023-07-13T12:08:29;4.88;;;2.08;;
38465;SDS011;24244;51.950;5.902;2023-07-13T12:10:56;3.65;;;1.70;;
38465;SDS011;24244;51.950;5.902;2023-07-13T12:13:26;3.30;;;1.52;;
38465;SDS011;24244;51.950;5.902;2023-07-13T12:15:55;3.28;;;1.80;;
38465;SDS011;24244;51.950;5.902;2023-07-13T12:18:27;4.07;;;1.63;;
38465;SDS011;24244;51.950;5.902;2023-07-13T12:20:57;3.80;;;1.90;;
38465;SDS011;24244;51.950;5.902;2023-07-13T12:23:28;3.45;;;1.95;;
38465;SDS011;24244;51.950;5.902;2023-07-13T12:25:57;4.45;;;2.17;;
38465;SDS011;24244;51.950;5.902;2023-07-13T12:28:30;3.80;;;1.40;;
38465;SDS011;24244;51.950;5.902;2023-07-13T12:30:59;4.22;;;2.00;;
38465;SDS011;24244;51.950;5.902;2023-07-13T12:33:28;3.38;;;1.80;;
38465;SDS011;24244;51.950;5.902;2023-07-13T12:35:55;5.05;;;1.80;;
38465;SDS011;24244;51.950;5.902;2023-07-13T12:38:24;2.47;;;1.38;;
38465;SDS011;24244;51.950;5.902;2023-07-13T12:40:53;2.40;;;1.25;;
38465;SDS011;24244;51.950;5.902;2023-07-13T12:43:20;5.03;;;2.30;;
38465;SDS011;24244;51.950;5.902;2023-07-13T12:45:56;4.57;;;1.50;;
38465;SDS011;24244;51.950;5.902;2023-07-13T12:48:24;4.00;;;1.75;;
38465;SDS011;24244;51.950;5.902;2023-07-13T12:51:10;4.00;;;1.73;;
38465;SDS011;24244;51.950;5.902;2023-07-13T12:53:40;3.38;;;1.67;;
38465;SDS011;24244;51.950;5.902;2023-07-13T12:56:11;2.92;;;1.75;;
38465;SDS011;24244;51.950;5.902;2023-07-13T12:58:45;3.58;;;1.40;;
38465;SDS011;24244;51.950;5.902;2023-07-13T13:01:16;3.78;;;1.50;;
38465;SDS011;24244;51.950;5.902;2023-07-13T13:03:45;2.53;;;1.30;;
38465;SDS011;24244;51.950;5.902;2023-07-13T13:06:21;3.55;;;1.23;;
38465;SDS011;24244;51.950;5.902;2023-07-13T13:08:53;3.60;;;1.30;;
38465;SDS011;24244;51.950;5.902;2023-07-13T13:11:29;2.90;;;1.30;;
38465;SDS011;24244;51.950;5.902;2023-07-13T13:13:58;2.90;;;1.17;;
38465;SDS011;24244;51.950;5.902;2023-07-13T13:16:29;3.88;;;1.00;;
38465;SDS011;24244;51.950;5.902;2023-07-13T13:19:05;2.67;;;1.23;;
38465;SDS011;24244;51.950;5.902;2023-07-13T13:21:39;2.70;;;1.48;;
38465;SDS011;24244;51.950;5.902;2023-07-13T13:24:08;2.53;;;0.95;;
38465;SDS011;24244;51.950;5.902;2023-07-13T13:26:38;3.20;;;1.25;;
38465;SDS011;24244;51.950;5.902;2023-07-13T13:29:09;2.65;;;1.30;;
38465;SDS011;24244;51.950;5.902;2023-07-13T13:31:40;2.78;;;0.90;;
38465;SDS011;24244;51.950;5.902;2023-07-13T13:34:07;2.75;;;1.25;;
38465;SDS011;24244;51.950;5.902;2023-07-13T13:36:36;4.05;;;1.00;;
38465;SDS011;24244;51.950;5.902;2023-07-13T13:39:05;2.90;;;1.20;;
38465;SDS011;24244;51.950;5.902;2023-07-13T13:41:43;3.83;;;1.50;;
38465;SDS011;24244;51.950;5.902;2023-07-13T13:44:10;2.50;;;1.30;;
38465;SDS011;24244;51.950;5.902;2023-07-13T13:46:36;5.25;;;1.10;;
38465;SDS011;24244;51.950;5.902;2023-07-13T13:49:03;3.75;;;1.55;;
38465;SDS011;24244;51.950;5.902;2023-07-13T13:51:30;3.78;;;1.33;;
38465;SDS011;24244;51.950;5.902;2023-07-13T13:53:57;2.33;;;1.48;;
38465;SDS011;24244;51.950;5.902;2023-07-13T13:56:24;2.22;;;1.05;;
38465;SDS011;24244;51.950;5.902;2023-07-13T13:58:54;2.40;;;1.20;;
38465;SDS011;24244;51.950;5.902;2023-07-13T14:01:21;3.20;;;0.90;;
38465;SDS011;24244;51.950;5.902;2023-07-13T14:03:51;2.20;;;1.35;;
38465;SDS011;24244;51.950;5.902;2023-07-13T14:06:17;2.47;;;1.20;;
38465;SDS011;24244;51.950;5.902;2023-07-13T14:08:44;2.85;;;1.00;;
38465;SDS011;24244;51.950;5.902;2023-07-13T14:11:11;3.45;;;1.45;;
38465;SDS011;24244;51.950;5.902;2023-07-13T14:13:40;2.08;;;1.20;;
38465;SDS011;24244;51.950;5.902;2023-07-13T14:16:12;1.92;;;0.82;;
38465;SDS011;24244;51.950;5.902;2023-07-13T14:18:43;3.10;;;0.93;;
38465;SDS011;24244;51.950;5.902;2023-07-13T14:21:14;2.33;;;0.90;;
38465;SDS011;24244;51.950;5.902;2023-07-13T14:23:43;2.47;;;1.00;;
38465;SDS011;24244;51.950;5.902;2023-07-13T14:26:11;3.08;;;0.85;;
38465;SDS011;24244;51.950;5.902;2023-07-13T14:28:41;3.42;;;1.20;;
38465;SDS011;24244;51.950;5.902;2023-07-13T14:31:14;2.83;;;1.05;;
38465;SDS011;24244;51.950;5.902;2023-07-13T14:33:44;3.03;;;0.82;;
38465;SDS011;24244;51.950;5.902;2023-07-13T14:36:25;1.80;;;0.70;;
38465;SDS011;24244;51.950;5.902;2023-07-13T14:38:55;3.60;;;0.93;;
38465;SDS011;24244;51.950;5.902;2023-07-13T14:41:23;2.13;;;0.80;;
38465;SDS011;24244;51.950;5.902;2023-07-13T14:43:50;1.83;;;0.70;;
38465;SDS011;24244;51.950;5.902;2023-07-13T14:46:21;3.22;;;0.88;;
38465;SDS011;24244;51.950;5.902;2023-07-13T14:48:58;3.33;;;1.20;;
38465;SDS011;24244;51.950;5.902;2023-07-13T14:51:28;2.60;;;0.80;;
38465;SDS011;24244;51.950;5.902;2023-07-13T14:53:55;2.38;;;0.60;;
38465;SDS011;24244;51.950;5.902;2023-07-13T14:56:22;2.25;;;0.80;;
38465;SDS011;24244;51.950;5.902;2023-07-13T14:58:49;2.33;;;0.75;;
38465;SDS011;24244;51.950;5.902;2023-07-13T15:01:16;1.75;;;0.57;;
38465;SDS011;24244;51.950;5.902;2023-07-13T15:03:45;2.10;;;0.70;;
38465;SDS011;24244;51.950;5.902;2023-07-13T15:08:41;2.22;;;0.52;;
38465;SDS011;24244;51.950;5.902;2023-07-13T15:11:08;3.17;;;0.95;;
38465;SDS011;24244;51.950;5.902;2023-07-13T15:13:38;3.47;;;1.00;;
38465;SDS011;24244;51.950;5.902;2023-07-13T15:16:09;1.90;;;0.82;;